createdAt,value
2023-03-08T00:02:41.088Z,97897.72
2023-03-08T00:10:40.821Z,97897.13
2023-03-08T00:18:46.547Z,97905.66
2023-03-08T00:24:23.250Z,97899.34
2023-03-08T00:26:59.334Z,97899.56
2023-03-08T00:29:30.026Z,97902.41
2023-03-08T00:32:00.486Z,97905.47
2023-03-08T00:35:02.377Z,97904.03
2023-03-08T00:49:01.788Z,97901.59
2023-03-08T00:51:48.268Z,97901.59
2023-03-08T00:54:17.354Z,97898.97
2023-03-08T00:56:48.372Z,97895.69
2023-03-08T01:02:07.499Z,97895.06
2023-03-08T01:04:35.321Z,97895.28
2023-03-08T01:09:43.166Z,97893.63
2023-03-08T01:12:17.430Z,97890.19
2023-03-08T01:17:35.970Z,97896.91
2023-03-08T01:20:07.763Z,97882.25
2023-03-08T01:22:36.246Z,97878.19
2023-03-08T01:28:05.881Z,97879.41
2023-03-08T01:33:25.250Z,97883.66
2023-03-08T01:36:40.865Z,97880.41
2023-03-08T01:42:12.420Z,97877.72
2023-03-08T01:45:00.969Z,97879.16
2023-03-08T01:48:02.982Z,97872.03
2023-03-08T01:51:10.980Z,97871.00
2023-03-08T01:53:39.168Z,97872.22
2023-03-08T01:59:04.931Z,97882.81
2023-03-08T02:01:39.562Z,97878.94
2023-03-08T02:04:07.426Z,97881.16
2023-03-08T02:07:04.080Z,97887.00
2023-03-08T02:09:33.807Z,97892.28
2023-03-08T02:12:11.817Z,97887.59
2023-03-08T02:14:48.054Z,97888.19
2023-03-08T02:17:29.615Z,97891.44
2023-03-08T02:20:22.917Z,97883.47
2023-03-08T02:26:00.888Z,97871.22
2023-03-08T02:28:40.752Z,97867.75
2023-03-08T02:31:35.862Z,97878.09
2023-03-08T02:34:16.427Z,97875.38
2023-03-08T02:36:47.077Z,97877.22
2023-03-08T02:39:18.109Z,97883.28
2023-03-08T02:41:47.120Z,97878.59
2023-03-08T02:44:22.767Z,97881.41
2023-03-08T02:49:46.957Z,97887.91
2023-03-08T02:57:42.911Z,97896.56
2023-03-08T03:00:28.203Z,97893.31
2023-03-08T03:03:25.013Z,97885.59
2023-03-08T03:05:52.976Z,97884.34
2023-03-08T03:08:29.814Z,97894.28
2023-03-08T03:11:45.384Z,97881.66
2023-03-08T03:14:13.163Z,97888.72
2023-03-08T03:17:07.062Z,97892.28
2023-03-08T03:19:41.270Z,97893.69
2023-03-08T03:22:12.042Z,97897.72
2023-03-08T03:30:46.003Z,97898.28
2023-03-08T03:36:00.633Z,97893.44
2023-03-08T03:38:31.676Z,97896.50
2023-03-08T03:41:25.946Z,97898.16
2023-03-08T03:47:16.753Z,97899.59
2023-03-08T03:49:49.855Z,97891.91
2023-03-08T03:52:23.863Z,97892.19
2023-03-08T03:58:11.461Z,97898.94
2023-03-08T04:00:44.573Z,97900.16
2023-03-08T04:03:41.698Z,97889.47
2023-03-08T04:09:20.849Z,97902.53
2023-03-08T04:12:10.781Z,97903.34
2023-03-08T04:14:58.873Z,97908.41
2023-03-08T04:17:34.880Z,97909.03
2023-03-08T04:20:06.424Z,97912.72
2023-03-08T04:22:53.602Z,97906.81
2023-03-08T04:25:44.892Z,97911.53
2023-03-08T04:28:21.229Z,97919.25
2023-03-08T04:41:54.517Z,97943.13
2023-03-08T04:47:22.705Z,97937.00
2023-03-08T04:52:35.237Z,97947.63
2023-03-08T04:57:49.097Z,97955.41
2023-03-08T05:00:30.636Z,97951.56
2023-03-08T05:03:23.240Z,97947.69
2023-03-08T05:08:53.085Z,97945.72
2023-03-08T05:11:23.124Z,97940.91
2023-03-08T05:13:54.503Z,97932.00
2023-03-08T05:16:25.926Z,97931.81
2023-03-08T05:19:22.080Z,97938.13
2023-03-08T05:21:51.901Z,97942.84
2023-03-08T05:24:20.047Z,97934.91
2023-03-08T05:26:48.588Z,97929.44
2023-03-08T05:29:18.291Z,97932.53
2023-03-08T05:31:46.857Z,97942.69
2023-03-08T05:34:15.489Z,97927.66
2023-03-08T05:36:46.543Z,97924.78
2023-03-08T05:39:16.475Z,97926.25
2023-03-08T05:42:12.276Z,97924.38
2023-03-08T05:44:41.695Z,97926.44
2023-03-08T05:47:12.610Z,97927.84
2023-03-08T05:49:40.190Z,97931.50
2023-03-08T05:52:08.266Z,97930.66
2023-03-08T05:54:35.884Z,97929.03
2023-03-08T05:57:08.871Z,97932.06
2023-03-08T05:59:37.362Z,97926.72
2023-03-08T06:02:16.739Z,97931.63
2023-03-08T06:05:03.115Z,97926.69
2023-03-08T06:07:30.671Z,97928.47
2023-03-08T06:10:05.811Z,97929.47
2023-03-08T06:12:33.646Z,97924.97
2023-03-08T06:15:04.472Z,97922.25
2023-03-08T06:17:35.256Z,97920.16
2023-03-08T06:20:02.593Z,97924.03
2023-03-08T06:22:34.057Z,97919.13
2023-03-08T06:25:04.145Z,97916.66
2023-03-08T06:27:36.880Z,97905.22
2023-03-08T06:30:10.328Z,97910.53
2023-03-08T06:32:37.775Z,97901.06
2023-03-08T06:35:09.781Z,97894.88
2023-03-08T06:37:43.245Z,97889.06
2023-03-08T06:40:12.063Z,97881.06
2023-03-08T06:42:42.032Z,97875.06
2023-03-08T06:45:13.016Z,97862.69
2023-03-08T06:47:43.518Z,97862.50
2023-03-08T06:50:11.943Z,97856.97
2023-03-08T06:52:42.063Z,97846.34
2023-03-08T06:55:14.784Z,97844.38
2023-03-08T06:58:07.871Z,97849.72
2023-03-08T07:00:35.348Z,97841.22
2023-03-08T07:06:51.486Z,97832.13
2023-03-08T07:09:21.565Z,97825.41
2023-03-08T07:11:48.738Z,97827.41
2023-03-08T07:14:19.759Z,97813.66
2023-03-08T07:19:37.089Z,97818.19
2023-03-08T07:22:04.427Z,97806.97
2023-03-08T07:24:31.360Z,97815.47
2023-03-08T07:27:36.075Z,97822.75
2023-03-08T07:30:32.967Z,97814.56
2023-03-08T07:33:19.037Z,97812.88
2023-03-08T07:35:48.070Z,97824.09
2023-03-08T07:41:15.519Z,97811.03
2023-03-08T07:43:52.206Z,97826.44
2023-03-08T07:46:45.778Z,97825.72
2023-03-08T07:52:09.574Z,97827.34
2023-03-08T07:54:37.737Z,97821.56
2023-03-08T07:57:08.057Z,97814.03
2023-03-08T07:59:35.301Z,97804.41
2023-03-08T08:02:02.507Z,97800.59
2023-03-08T08:04:48.863Z,97798.84
2023-03-08T08:07:40.777Z,97785.06
2023-03-08T08:10:50.641Z,97776.38
2023-03-08T08:13:18.974Z,97777.78
2023-03-08T08:15:45.929Z,97771.28
2023-03-08T08:18:21.393Z,97771.97
2023-03-08T08:21:05.612Z,97766.41
2023-03-08T08:23:45.157Z,97771.16
2023-03-08T08:29:55.821Z,97777.53
2023-03-08T08:32:26.577Z,97779.97
2023-03-08T08:34:53.637Z,97776.59
2023-03-08T08:37:43.620Z,97771.94
2023-03-08T08:40:14.719Z,97775.97
2023-03-08T08:42:47.680Z,97780.16
2023-03-08T08:45:57.328Z,97768.13
2023-03-08T08:49:36.517Z,97776.31
2023-03-08T08:52:20.030Z,97751.69
2023-03-08T08:57:45.805Z,97752.09
2023-03-08T09:00:22.828Z,97744.59
2023-03-08T09:02:51.913Z,97749.72
2023-03-08T09:05:28.956Z,97737.84
2023-03-08T09:08:00.561Z,97738.56
2023-03-08T09:10:40.537Z,97733.72
2023-03-08T09:13:13.950Z,97721.41
2023-03-08T09:16:02.610Z,97714.53
2023-03-08T09:18:29.763Z,97717.78
2023-03-08T09:20:56.745Z,97708.06
2023-03-08T09:23:25.010Z,97703.47
2023-03-08T09:26:00.348Z,97700.53
2023-03-08T09:28:28.711Z,97698.03
2023-03-08T09:30:58.792Z,97693.47
2023-03-08T09:33:25.881Z,97691.50
2023-03-08T09:35:58.343Z,97694.56
2023-03-08T09:38:25.924Z,97681.28
2023-03-08T09:41:16.786Z,97677.34
2023-03-08T09:44:11.599Z,97675.59
2023-03-08T09:46:55.105Z,97673.31
2023-03-08T09:49:26.196Z,97670.50
2023-03-08T09:52:00.226Z,97663.59
2023-03-08T09:54:57.619Z,97660.41
2023-03-08T10:04:39.870Z,97621.19
2023-03-08T10:07:25.360Z,97614.41
2023-03-08T10:10:08.760Z,97609.25
2023-03-08T10:16:55.488Z,97618.41
2023-03-08T10:20:34.280Z,97604.69
2023-03-08T10:23:16.512Z,97601.41
2023-03-08T10:45:37.112Z,97569.66
2023-03-08T10:48:49.253Z,97569.75
2023-03-08T11:02:07.341Z,97535.75
2023-03-08T11:04:38.568Z,97526.41
2023-03-08T11:07:21.129Z,97515.69
2023-03-08T11:09:55.304Z,97515.44
2023-03-08T11:12:50.268Z,97515.25
2023-03-08T11:15:21.986Z,97502.13
2023-03-08T11:17:57.757Z,97490.28
2023-03-08T11:20:30.950Z,97489.91
2023-03-08T11:23:28.425Z,97485.53
2023-03-08T11:26:18.645Z,97482.03
2023-03-08T11:28:57.141Z,97466.53
2023-03-08T11:34:35.820Z,97460.84
2023-03-08T11:37:10.073Z,97456.94
2023-03-08T11:42:50.200Z,97450.16
2023-03-08T11:45:28.257Z,97443.75
2023-03-08T11:48:22.404Z,97442.94
2023-03-08T11:51:39.802Z,97415.09
2023-03-08T11:54:30.355Z,97434.31
2023-03-08T12:03:21.183Z,97403.22
2023-03-08T12:06:22.677Z,97408.03
2023-03-08T12:13:35.821Z,97391.94
2023-03-08T12:16:31.964Z,97386.31
2023-03-08T12:20:00.808Z,97377.75
2023-03-08T12:23:16.483Z,97371.03
2023-03-08T12:26:02.664Z,97353.91
2023-03-08T12:28:44.101Z,97353.31
2023-03-08T12:31:28.430Z,97339.09
2023-03-08T12:33:58.720Z,97341.72
2023-03-08T12:36:47.076Z,97340.06
2023-03-08T12:39:34.647Z,97329.06
2023-03-08T12:54:11.662Z,97304.22
2023-03-08T13:13:07.232Z,97276.97
2023-03-08T14:22:38.779Z,97094.22
2023-03-08T14:25:07.601Z,97104.84
2023-03-08T14:31:21.427Z,97091.47
2023-03-08T14:37:44.781Z,97069.31
2023-03-08T14:40:41.723Z,97066.56
2023-03-08T14:43:15.728Z,97062.81
2023-03-08T14:46:38.615Z,97054.22
2023-03-08T14:49:21.069Z,97049.91
2023-03-08T14:51:48.339Z,97039.22
2023-03-08T14:54:34.446Z,97039.16
2023-03-08T15:00:58.393Z,97012.41
2023-03-08T15:03:41.190Z,97012.13
2023-03-08T15:06:31.689Z,97025.41
2023-03-08T15:09:04.896Z,97001.94
2023-03-08T15:21:32.537Z,97000.00
2023-03-08T15:36:55.847Z,96961.38
2023-03-08T15:39:26.763Z,96966.44
2023-03-08T15:41:55.985Z,96959.03
2023-03-08T15:47:15.359Z,96947.06
2023-03-08T15:54:38.325Z,96938.06
2023-03-08T16:12:54.440Z,96917.81
2023-03-08T16:18:11.620Z,96913.38
2023-03-08T16:21:07.205Z,96907.78
2023-03-08T16:23:45.973Z,96902.75
2023-03-08T16:26:17.787Z,96916.34
2023-03-08T16:28:58.840Z,96900.16
2023-03-08T16:32:18.809Z,96901.50
2023-03-08T16:34:55.018Z,96900.19
2023-03-08T16:37:25.271Z,96897.50
2023-03-08T16:40:22.799Z,96899.38
2023-03-08T16:42:54.735Z,96892.72
2023-03-08T16:45:38.045Z,96892.72
2023-03-08T16:48:05.466Z,96879.94
2023-03-08T16:50:38.035Z,96884.78
2023-03-08T16:53:07.399Z,96874.13
2023-03-08T16:55:51.141Z,96860.28
2023-03-08T16:58:22.171Z,96866.72
2023-03-08T17:01:04.855Z,96855.25
2023-03-08T17:03:46.133Z,96856.59
2023-03-08T17:06:20.340Z,96849.72
2023-03-08T17:08:56.961Z,96850.50
2023-03-08T17:11:32.302Z,96860.91
2023-03-08T17:14:02.661Z,96840.13
2023-03-08T17:16:33.642Z,96825.75
2023-03-08T17:19:02.493Z,96836.41
2023-03-08T17:28:52.441Z,96819.09
2023-03-08T17:39:13.702Z,96822.59
2023-03-08T17:41:47.910Z,96808.75
2023-03-08T17:44:25.414Z,96809.53
2023-03-08T17:50:12.016Z,96808.53
2023-03-08T17:52:40.937Z,96806.41
2023-03-08T17:55:46.275Z,96801.59
2023-03-08T17:58:13.800Z,96809.88
2023-03-08T18:00:43.840Z,96798.94
2023-03-08T18:03:12.247Z,96797.63
2023-03-08T18:05:53.082Z,96791.22
2023-03-08T18:08:53.629Z,96783.22
2023-03-08T18:11:30.077Z,96788.28
2023-03-08T18:13:59.967Z,96779.47
2023-03-08T18:16:27.245Z,96782.94
2023-03-08T18:19:05.186Z,96791.75
2023-03-08T18:21:42.360Z,96782.16
2023-03-08T18:24:36.182Z,96789.88
2023-03-08T18:27:08.640Z,96783.50
2023-03-08T18:29:36.067Z,96786.72
2023-03-08T18:32:14.467Z,96788.06
2023-03-08T18:34:46.024Z,96777.13
2023-03-08T18:37:20.494Z,96780.59
2023-03-08T18:39:54.776Z,96780.59
2023-03-08T18:42:23.162Z,96789.13
2023-03-08T18:45:25.916Z,96793.66
2023-03-08T18:47:52.901Z,96799.81
2023-03-08T18:50:23.145Z,96797.41
2023-03-08T18:52:57.514Z,96792.06
2023-03-08T18:55:26.062Z,96814.22
2023-03-08T18:57:56.318Z,96806.75
2023-03-08T19:00:27.225Z,96810.22
2023-03-08T19:02:56.915Z,96812.59
2023-03-08T19:06:16.678Z,96812.59
2023-03-08T19:08:44.189Z,96817.41
2023-03-08T19:11:19.798Z,96804.59
2023-03-08T19:13:50.035Z,96797.13
2023-03-08T19:16:31.918Z,96796.88
2023-03-08T19:25:21.038Z,96787.00
2023-03-08T19:27:55.722Z,96797.69
2023-03-08T19:33:56.979Z,96809.41
2023-03-08T19:36:46.634Z,96797.69
2023-03-08T19:39:39.685Z,96815.81
2023-03-08T19:42:45.097Z,96829.69
2023-03-08T19:47:59.661Z,96822.75
2023-03-08T19:50:26.819Z,96829.41
2023-03-08T19:52:57.387Z,96837.44
2023-03-08T19:55:34.002Z,96853.16
2023-03-08T19:58:02.235Z,96848.91
2023-03-08T20:00:31.438Z,96844.38
2023-03-08T20:03:03.648Z,96844.09
2023-03-08T20:06:02.744Z,96849.44
2023-03-08T20:08:31.853Z,96856.91
2023-03-08T20:14:29.884Z,96847.25
2023-03-08T20:16:57.708Z,96856.81
2023-03-08T20:19:29.446Z,96853.88
2023-03-08T20:22:22.681Z,96851.47
2023-03-08T20:24:49.958Z,96855.97
2023-03-08T20:27:18.103Z,96862.06
2023-03-08T20:29:45.309Z,96875.91
2023-03-08T20:32:12.455Z,96856.44
2023-03-08T20:34:39.678Z,96864.41
2023-03-08T20:37:08.770Z,96854.81
2023-03-08T20:40:02.805Z,96857.72
2023-03-08T20:42:35.201Z,96869.13
2023-03-08T20:45:04.095Z,96857.38
2023-03-08T20:53:58.739Z,96866.69
2023-03-08T20:56:26.465Z,96860.53
2023-03-08T20:59:20.579Z,96862.63
2023-03-08T21:01:47.761Z,96859.13
2023-03-08T21:04:15.206Z,96868.94
2023-03-08T21:06:42.541Z,96865.69
2023-03-08T21:09:09.739Z,96868.56
2023-03-08T21:11:36.735Z,96884.25
2023-03-08T21:14:04.026Z,96890.34
2023-03-08T21:16:31.666Z,96892.94
2023-03-08T21:19:00.652Z,96897.19
2023-03-08T21:21:48.604Z,96895.03
2023-03-08T21:24:17.174Z,96895.00
2023-03-08T21:26:44.697Z,96903.50
2023-03-08T21:29:15.781Z,96893.84
2023-03-08T21:31:44.704Z,96888.25
2023-03-08T21:34:12.740Z,96885.25
2023-03-08T21:36:40.185Z,96895.59
2023-03-08T21:39:07.846Z,96903.03
2023-03-08T21:41:41.696Z,96904.34
2023-03-08T21:44:19.107Z,96903.00
2023-03-08T21:46:46.766Z,96903.75
2023-03-08T21:49:18.156Z,96907.72
2023-03-08T21:51:45.246Z,96901.03
2023-03-08T21:54:12.600Z,96913.00
2023-03-08T21:56:40.669Z,96893.22
2023-03-08T21:59:07.697Z,96904.13
2023-03-08T22:01:37.403Z,96926.16
2023-03-08T22:04:05.099Z,96916.03
2023-03-08T22:06:32.385Z,96908.53
2023-03-08T22:08:59.523Z,96906.38
2023-03-08T22:11:26.832Z,96917.53
2023-03-08T22:13:55.276Z,96917.22
2023-03-08T22:16:22.604Z,96929.16
2023-03-08T22:18:52.036Z,96930.72
2023-03-08T22:21:19.871Z,96938.09
2023-03-08T22:23:51.348Z,96932.47
2023-03-08T22:26:18.852Z,96930.31
2023-03-08T22:28:45.808Z,96934.53
2023-03-08T22:31:14.608Z,96944.03
2023-03-08T22:33:46.988Z,96946.94
2023-03-08T22:36:16.212Z,96951.16
2023-03-08T22:38:43.163Z,96946.09
2023-03-08T22:41:26.911Z,96943.13
2023-03-08T22:43:53.917Z,96954.00
2023-03-08T22:46:22.775Z,96953.41
2023-03-08T22:48:49.742Z,96968.00
2023-03-08T22:51:18.352Z,96965.03
2023-03-08T22:53:45.269Z,96966.63
2023-03-08T22:56:20.069Z,96968.72
2023-03-08T22:58:48.042Z,96970.03
2023-03-08T23:01:16.160Z,96974.53
2023-03-08T23:03:43.245Z,96976.63
2023-03-08T23:06:10.466Z,96977.44
2023-03-08T23:08:37.434Z,96981.16
2023-03-08T23:11:04.364Z,96985.91
2023-03-08T23:13:34.314Z,96974.72
2023-03-08T23:16:02.025Z,96981.06
2023-03-08T23:18:29.310Z,96974.16
2023-03-08T23:20:56.271Z,96981.56
2023-03-08T23:23:26.076Z,96988.16
2023-03-08T23:25:52.986Z,96988.41
2023-03-08T23:28:20.329Z,96986.00
2023-03-08T23:30:47.500Z,97001.59
2023-03-08T23:33:14.433Z,96990.16
2023-03-08T23:35:41.586Z,96989.59
2023-03-08T23:38:08.486Z,96989.28
2023-03-08T23:40:37.910Z,96987.69
2023-03-08T23:43:04.771Z,96983.66
2023-03-08T23:45:31.622Z,96986.56
2023-03-08T23:47:58.564Z,96979.63
2023-03-08T23:50:25.356Z,96984.16
2023-03-08T23:52:53.797Z,96992.59
2023-03-08T23:55:21.751Z,96977.72
2023-03-08T23:57:49.346Z,96985.13
